Aviation Digital Data Service (ADDS)

Output produced by METARs form (1403 UTC 27 June 2017)
found at http://aviationweather.gov/adds/metars/
 
KBDL 271120Z 2712/2818 21004KT P6SM -SHRA OVC050 
     FM271300 19004KT P6SM OVC050 
     FM271700 20007KT P6SM VCSH BKN080 
     FM280000 25005KT P6SM SCT200 
     FM281300 28010KT P6SM FEW250